Airfield :







YOU CAN JOIN US ON...

 
LOGIN :

Register | Disclaimer

   EN    FR    IT 

 









Legend :    VFR   Marginal VFR   IFR   Intensive IFR   Very Intensive IFR
Visi :
Ceiling :
>= 8 km
>= 3000ft
5 to 8 km
1000 to 3000 ft
1500m to 5 km
500 to 1000 ft
800 to 1500m
200 to 500 ft
< 800m
< 200 ft
Symbols :   Thunderstorms  Fog  Heavy snow  Heavy precipitations  Wind > 20 kt






- Airport Elevation : 108 ft
- IATA code : YGP


CYGP - Gaspé

CURRENT METAR :
  • 250200Z 30007G22KT 270V340 15SM BKN022 07/04 A2934 RMK SC6 SLP939

EXPIRED METARs :
  • 250100Z 29017G29KT 260V330 15SM BKN022 07/04 A2932 RMK SC5 SLP933
  • 250000Z 31015G30KT 15SM BKN020 OVC045 07/05 A2929 RMK SC6SC2 SLP923
  • 242323Z 29012G24KT 15SM BKN020 07/05 A2929 RMK SC7 SLP920

TAF TAF CYGP
Valid from the 25 at 02:00 until the 25 at 14:00 UTC


250140Z 2502/2514 30015G30KT P6SM SCT020 OVC060
TEMPO 2502/2508 BKN020 OVC060
BECMG 2503/2505 30015G25KT
FM250800 28010G20KT P6SM SCT030 RMK NXT FCST BY 250800Z
CZUL FIR / North America



MET'MAP, your aeronautical weather chart ! - Copyright ORBIFLY December 2007 - Disclaimer

ORBIFLY MET'MAP TEAM :

Programming & Development : Alexandra Zaïnal
Original concept : Baudouin d'Aumeries
Technical & hardware support : Manuel Goepfert
Assistance : Marc-Olivier Méhu




SOURCES & CREDITS :

   NOAA